createdAt,value
2022-08-12T00:01:12.316Z,2.47
2022-08-12T00:03:58.175Z,2.13
2022-08-12T00:06:44.503Z,2.47
2022-08-12T00:09:29.905Z,2.80
2022-08-12T00:12:15.038Z,2.38
2022-08-12T00:15:03.247Z,2.33
2022-08-12T00:17:49.039Z,2.20
2022-08-12T00:20:35.053Z,2.55
2022-08-12T00:23:20.943Z,2.40
2022-08-12T00:26:23.448Z,2.70
2022-08-12T00:29:13.359Z,2.47
2022-08-12T00:32:01.531Z,2.45
2022-08-12T00:34:49.680Z,2.35
2022-08-12T00:37:40.205Z,2.55
2022-08-12T00:40:29.793Z,2.50
2022-08-12T00:42:58.533Z,2.33
2022-08-12T00:45:26.002Z,2.20
2022-08-12T00:47:54.246Z,2.70
2022-08-12T00:50:23.241Z,2.25
2022-08-12T00:52:52.955Z,2.63
2022-08-12T00:55:21.566Z,2.58
2022-08-12T00:57:50.839Z,2.50
2022-08-12T01:00:24.353Z,2.75
2022-08-12T01:02:57.684Z,2.85
2022-08-12T01:05:45.325Z,2.80
2022-08-12T01:08:30.937Z,2.80
2022-08-12T01:13:50.430Z,2.53
2022-08-12T01:16:22.887Z,3.60
2022-08-12T01:18:54.401Z,3.63
2022-08-12T01:21:27.457Z,2.78
2022-08-12T01:24:31.058Z,3.03
2022-08-12T01:27:01.519Z,2.88
2022-08-12T01:29:34.722Z,3.22
2022-08-12T01:32:08.883Z,2.72
2022-08-12T01:34:40.355Z,2.42
2022-08-12T01:37:09.898Z,3.47
2022-08-12T01:40:34.148Z,3.20
2022-08-12T01:42:47.709Z,2.85
2022-08-12T01:45:18.318Z,3.20
2022-08-12T01:48:16.773Z,3.45
2022-08-12T01:51:40.746Z,3.40
2022-08-12T01:54:14.185Z,3.90
2022-08-12T01:56:56.502Z,3.15
2022-08-12T01:59:56.572Z,3.53
2022-08-12T02:02:41.148Z,3.08
2022-08-12T02:06:08.457Z,3.28
2022-08-12T02:09:20.644Z,3.40
2022-08-12T02:11:53.817Z,3.85
2022-08-12T02:14:48.460Z,3.47
2022-08-12T02:17:57.103Z,3.50
2022-08-12T02:20:53.380Z,3.42
2022-08-12T02:23:28.338Z,3.35
2022-08-12T02:25:59.691Z,2.88
2022-08-12T02:28:27.332Z,3.42
2022-08-12T02:30:55.619Z,3.25
2022-08-12T02:33:23.333Z,3.88
2022-08-12T02:35:51.718Z,3.50
2022-08-12T02:38:21.928Z,3.70
2022-08-12T02:40:53.196Z,3.38
2022-08-12T02:43:34.853Z,4.30
2022-08-12T02:46:15.048Z,4.00
2022-08-12T02:49:33.366Z,3.17
2022-08-12T02:52:01.176Z,3.95
2022-08-12T02:54:28.275Z,3.53
2022-08-12T02:56:55.265Z,3.70
2022-08-12T02:59:25.129Z,3.85
2022-08-12T03:02:14.998Z,3.80
2022-08-12T03:04:50.309Z,3.95
2022-08-12T03:07:56.487Z,3.80
2022-08-12T03:10:37.104Z,4.60
2022-08-12T03:13:07.852Z,3.72
2022-08-12T03:15:39.017Z,3.70
2022-08-12T03:18:28.337Z,3.80
2022-08-12T03:20:59.071Z,4.22
2022-08-12T03:23:31.085Z,3.90
2022-08-12T03:26:01.988Z,3.80
2022-08-12T03:28:51.231Z,4.32
2022-08-12T03:31:32.427Z,3.85
2022-08-12T03:34:09.180Z,4.20
2022-08-12T03:36:39.275Z,4.25
2022-08-12T03:39:35.423Z,4.57
2022-08-12T03:42:41.691Z,4.68
2022-08-12T03:45:51.923Z,4.80
2022-08-12T03:48:39.466Z,4.32
2022-08-12T03:51:25.237Z,4.38
2022-08-12T03:54:11.763Z,4.40
2022-08-12T03:56:58.452Z,4.40
2022-08-12T03:59:44.340Z,5.07
2022-08-12T04:04:49.276Z,4.60
2022-08-12T04:07:16.898Z,5.05
2022-08-12T04:09:46.876Z,4.22
2022-08-12T04:12:33.590Z,4.20
2022-08-12T04:15:01.800Z,4.15
2022-08-12T04:17:29.153Z,4.43
2022-08-12T04:19:58.311Z,4.68
2022-08-12T04:22:30.021Z,4.07
2022-08-12T04:25:02.080Z,4.82
2022-08-12T04:27:32.276Z,4.45
2022-08-12T04:30:31.512Z,4.40
2022-08-12T04:32:51.033Z,3.85
2022-08-12T04:35:19.026Z,4.22
2022-08-12T04:37:58.648Z,4.32
2022-08-12T04:40:31.385Z,4.70
2022-08-12T04:43:01.510Z,5.00
2022-08-12T04:45:29.361Z,5.18
2022-08-12T04:47:56.806Z,5.10
2022-08-12T04:50:27.189Z,4.65
2022-08-12T04:53:08.120Z,4.95
2022-08-12T04:55:39.189Z,4.90
2022-08-12T04:58:10.441Z,5.75
2022-08-12T05:00:38.465Z,5.05
2022-08-12T05:03:07.208Z,5.40
2022-08-12T05:05:36.539Z,4.75
2022-08-12T05:08:04.927Z,5.50
2022-08-12T05:10:33.721Z,5.57
2022-08-12T05:13:11.220Z,5.72
2022-08-12T05:18:29.693Z,6.43
2022-08-12T05:20:59.377Z,5.25
2022-08-12T05:23:27.350Z,6.00
2022-08-12T05:25:57.889Z,5.30
2022-08-12T05:28:27.594Z,6.07
2022-08-12T05:30:55.838Z,4.90
2022-08-12T05:33:26.789Z,5.95
2022-08-12T05:35:53.790Z,5.82
2022-08-12T05:38:39.477Z,5.63
2022-08-12T05:43:58.223Z,4.43
2022-08-12T05:46:27.849Z,5.38
2022-08-12T05:48:56.523Z,5.20
2022-08-12T05:51:40.690Z,4.32
2022-08-12T05:54:09.636Z,5.72
2022-08-12T05:56:37.182Z,4.97
2022-08-12T05:59:09.457Z,5.28
2022-08-12T06:02:08.743Z,4.88
2022-08-12T06:04:23.969Z,5.30
2022-08-12T06:06:53.677Z,4.60
2022-08-12T06:09:22.853Z,5.03
2022-08-12T06:12:04.541Z,5.50
2022-08-12T06:14:36.902Z,4.90
2022-08-12T06:17:05.721Z,5.20
2022-08-12T06:20:22.899Z,5.30
2022-08-12T06:22:19.724Z,4.57
2022-08-12T06:24:48.629Z,5.00
2022-08-12T06:27:19.122Z,4.80
2022-08-12T06:30:08.634Z,4.40
2022-08-12T06:32:34.643Z,4.68
2022-08-12T06:35:26.610Z,4.60
2022-08-12T06:37:56.818Z,5.32
2022-08-12T06:41:04.167Z,4.80
2022-08-12T06:44:06.248Z,5.10
2022-08-12T06:46:22.391Z,4.38
2022-08-12T06:48:56.939Z,4.20
2022-08-12T06:51:25.494Z,3.42
2022-08-12T06:53:52.531Z,3.80
2022-08-12T06:56:19.600Z,3.20
2022-08-12T06:58:46.696Z,3.30
2022-08-12T07:01:13.660Z,3.22
2022-08-12T07:03:40.937Z,3.33
2022-08-12T07:06:13.730Z,2.78
2022-08-12T07:08:42.428Z,3.17
2022-08-12T07:11:12.188Z,3.47
2022-08-12T07:14:12.631Z,3.05
2022-08-12T07:16:51.782Z,3.00
2022-08-12T07:21:59.815Z,3.20
2022-08-12T07:24:30.682Z,3.17
2022-08-12T07:26:57.565Z,2.90
2022-08-12T07:29:57.856Z,2.72
2022-08-12T07:32:13.511Z,2.20
2022-08-12T07:34:43.513Z,2.42
2022-08-12T07:37:10.916Z,2.50
2022-08-12T07:39:51.381Z,2.55
2022-08-12T07:42:24.547Z,2.60
2022-08-12T07:44:53.753Z,2.50
2022-08-12T07:47:20.644Z,2.60
2022-08-12T07:50:04.220Z,2.78
2022-08-12T07:52:42.862Z,2.35
2022-08-12T07:55:11.394Z,2.75
2022-08-12T07:57:59.475Z,2.50
2022-08-12T08:00:34.482Z,2.10
2022-08-12T08:03:01.733Z,2.28
2022-08-12T08:05:46.465Z,2.45
2022-08-12T08:08:22.678Z,2.20
2022-08-12T08:10:53.589Z,2.13
2022-08-12T08:13:20.707Z,2.00
2022-08-12T08:16:03.963Z,2.40
2022-08-12T08:18:31.478Z,2.20
2022-08-12T08:20:58.304Z,2.30
2022-08-12T08:23:46.447Z,2.33
2022-08-12T08:26:15.749Z,2.58
2022-08-12T08:28:43.844Z,2.47
2022-08-12T08:31:14.421Z,2.30
2022-08-12T08:34:05.437Z,2.45
2022-08-12T08:36:29.483Z,2.63
2022-08-12T08:38:58.229Z,2.35
2022-08-12T08:42:17.736Z,2.17
2022-08-12T08:44:39.643Z,2.60
2022-08-12T08:47:09.397Z,2.25
2022-08-12T08:49:37.355Z,2.30
2022-08-12T08:52:06.648Z,2.33
2022-08-12T08:54:34.104Z,2.30
2022-08-12T08:57:02.703Z,2.30
2022-08-12T08:59:29.673Z,2.20
2022-08-12T09:01:57.125Z,2.28
2022-08-12T09:05:11.708Z,2.15
2022-08-12T09:07:16.708Z,2.30
2022-08-12T09:10:02.272Z,2.35
2022-08-12T09:12:55.145Z,2.25
2022-08-12T09:15:35.490Z,2.40
2022-08-12T09:18:08.818Z,2.30
2022-08-12T09:20:40.301Z,2.42
2022-08-12T09:24:00.370Z,2.38
2022-08-12T09:26:04.071Z,2.17
2022-08-12T09:28:34.525Z,2.30
2022-08-12T09:32:07.060Z,2.10
2022-08-12T09:34:25.569Z,2.65
2022-08-12T09:36:57.584Z,2.22
2022-08-12T09:40:06.364Z,2.00
2022-08-12T09:42:43.409Z,2.17
2022-08-12T09:45:24.635Z,2.20
2022-08-12T09:48:22.328Z,2.42
2022-08-12T09:50:51.643Z,2.03
2022-08-12T09:53:36.378Z,2.15
2022-08-12T09:57:00.870Z,2.47
2022-08-12T09:59:01.906Z,2.00
2022-08-12T10:01:34.714Z,2.10
2022-08-12T10:04:19.910Z,2.08
2022-08-12T10:06:55.456Z,2.40
2022-08-12T10:09:28.493Z,2.05
2022-08-12T10:12:33.445Z,2.30
2022-08-12T10:15:03.994Z,2.30
2022-08-12T10:17:33.310Z,1.90
2022-08-12T10:22:39.179Z,2.00
2022-08-12T10:26:34.135Z,2.35
2022-08-12T10:28:33.477Z,1.90
2022-08-12T10:31:01.316Z,2.10
2022-08-12T10:33:32.109Z,2.33
2022-08-12T10:36:02.089Z,2.13
2022-08-12T10:38:36.135Z,1.80
2022-08-12T10:41:57.775Z,2.00
2022-08-12T10:44:16.874Z,2.20
2022-08-12T10:46:49.300Z,2.20
2022-08-12T10:50:03.009Z,2.00
2022-08-12T10:52:33.042Z,2.40
2022-08-12T10:54:56.235Z,2.15
2022-08-12T10:57:50.354Z,2.03
2022-08-12T11:00:34.945Z,1.98
2022-08-12T11:04:26.951Z,2.30
2022-08-12T11:07:07.812Z,2.13
2022-08-12T11:08:43.035Z,1.85
2022-08-12T11:12:07.565Z,2.13
2022-08-12T11:14:05.986Z,2.42
2022-08-12T11:16:40.158Z,2.10
2022-08-12T11:19:29.202Z,1.90
2022-08-12T11:22:02.938Z,2.30
2022-08-12T11:24:32.273Z,1.92
2022-08-12T11:27:07.897Z,1.73
2022-08-12T11:30:06.156Z,1.80
2022-08-12T11:32:25.029Z,2.00
2022-08-12T11:34:54.788Z,2.10
2022-08-12T11:37:25.436Z,2.10
2022-08-12T11:42:43.769Z,1.92
2022-08-12T11:45:16.916Z,2.10
2022-08-12T11:47:44.842Z,1.92
2022-08-12T11:50:18.922Z,2.15
2022-08-12T11:52:55.756Z,1.73
2022-08-12T11:55:25.587Z,2.25
2022-08-12T11:58:40.445Z,1.80
2022-08-12T12:03:43.643Z,1.95
2022-08-12T12:06:15.423Z,1.80
2022-08-12T12:08:50.389Z,1.98
2022-08-12T12:11:19.082Z,1.93
2022-08-12T12:14:06.696Z,1.98
2022-08-12T12:16:37.984Z,1.90
2022-08-12T12:19:10.440Z,1.90
2022-08-12T12:21:48.291Z,2.00
2022-08-12T12:24:21.613Z,2.17
2022-08-12T12:26:59.819Z,1.95
2022-08-12T12:30:17.962Z,2.13
2022-08-12T12:32:16.613Z,2.22
2022-08-12T12:35:13.741Z,2.30
2022-08-12T12:38:03.848Z,1.83
2022-08-12T12:40:17.719Z,1.90
2022-08-12T12:42:57.812Z,2.17
2022-08-12T12:45:33.325Z,1.90
2022-08-12T12:48:14.152Z,1.98
2022-08-12T12:51:13.186Z,1.70
2022-08-12T12:54:08.095Z,2.15
2022-08-12T12:56:34.604Z,2.00
2022-08-12T12:59:06.364Z,1.88
2022-08-12T13:01:38.412Z,1.92
2022-08-12T13:04:12.184Z,1.70
2022-08-12T13:06:42.120Z,1.80
2022-08-12T13:09:13.229Z,1.88
2022-08-12T13:11:42.065Z,1.80
2022-08-12T13:14:28.607Z,1.83
2022-08-12T13:17:02.638Z,2.00
2022-08-12T13:19:44.472Z,1.80
2022-08-12T13:22:23.410Z,1.95
2022-08-12T13:24:56.013Z,2.00
2022-08-12T13:27:41.574Z,1.77
2022-08-12T13:30:20.624Z,1.80
2022-08-12T13:32:57.562Z,1.60
2022-08-12T13:36:04.960Z,1.50
2022-08-12T13:38:41.097Z,1.50
2022-08-12T13:41:33.136Z,1.70
2022-08-12T13:44:02.122Z,1.90
2022-08-12T13:46:28.959Z,1.77
2022-08-12T13:48:56.673Z,1.70
2022-08-12T13:51:25.144Z,1.70
2022-08-12T13:54:13.957Z,1.60
2022-08-12T13:56:41.339Z,1.90
2022-08-12T13:59:18.539Z,1.60
2022-08-12T14:01:52.013Z,1.65
2022-08-12T14:04:19.402Z,1.63
2022-08-12T14:06:50.930Z,1.80
2022-08-12T14:09:19.959Z,1.70
2022-08-12T14:11:58.329Z,1.75
2022-08-12T14:14:27.352Z,1.80
2022-08-12T14:16:54.162Z,1.60
2022-08-12T14:19:24.466Z,1.63
2022-08-12T14:21:59.615Z,1.40
2022-08-12T14:24:40.593Z,1.58
2022-08-12T14:27:10.916Z,2.10
2022-08-12T14:30:05.107Z,1.85
2022-08-12T14:32:35.248Z,1.77
2022-08-12T14:35:09.221Z,1.65
2022-08-12T14:37:57.957Z,1.83
2022-08-12T14:40:30.122Z,1.77
2022-08-12T14:42:59.297Z,1.60
2022-08-12T14:45:44.390Z,1.52
2022-08-12T14:48:16.308Z,1.55
2022-08-12T14:51:03.329Z,1.70
2022-08-12T14:59:57.420Z,1.50
2022-08-12T15:02:21.191Z,1.65
2022-08-12T15:04:59.694Z,1.60
2022-08-12T15:07:33.609Z,1.63
2022-08-12T15:10:24.971Z,1.70
2022-08-12T15:12:52.684Z,1.40
2022-08-12T15:15:21.660Z,1.48
2022-08-12T15:17:59.100Z,1.52
2022-08-12T15:20:33.096Z,1.70
2022-08-12T15:23:17.966Z,1.50
2022-08-12T15:25:48.229Z,1.77
2022-08-12T15:28:22.239Z,1.70
2022-08-12T15:30:52.392Z,1.63
2022-08-12T15:33:24.237Z,1.83
2022-08-12T15:35:54.046Z,1.80
2022-08-12T15:38:31.512Z,1.85
2022-08-12T15:41:00.211Z,1.60
2022-08-12T15:43:51.644Z,1.42
2022-08-12T15:46:17.458Z,1.85
2022-08-12T15:48:46.715Z,1.67
2022-08-12T15:51:59.536Z,1.80
2022-08-12T15:54:33.990Z,1.73
2022-08-12T15:57:08.067Z,1.92
2022-08-12T16:00:00.793Z,1.80
2022-08-12T16:02:29.747Z,1.50
2022-08-12T16:04:57.449Z,1.73
2022-08-12T16:07:29.655Z,1.60
2022-08-12T16:10:07.066Z,1.95
2022-08-12T16:12:54.436Z,2.25
2022-08-12T16:15:26.469Z,1.42
2022-08-12T16:18:15.175Z,1.65
2022-08-12T16:20:47.213Z,1.50
2022-08-12T16:23:26.717Z,2.00
2022-08-12T16:26:05.603Z,1.77
2022-08-12T16:28:34.023Z,1.75
2022-08-12T16:31:02.114Z,1.73
2022-08-12T16:33:58.767Z,1.70
2022-08-12T16:36:29.539Z,1.85
2022-08-12T16:38:57.024Z,1.80
2022-08-12T16:41:24.273Z,1.67
2022-08-12T16:43:55.033Z,2.20
2022-08-12T16:46:32.775Z,1.85
2022-08-12T16:49:09.050Z,1.98
2022-08-12T16:51:46.579Z,1.98
2022-08-12T16:54:17.230Z,1.90
2022-08-12T16:56:50.953Z,1.80
2022-08-12T16:59:22.923Z,1.83
2022-08-12T17:01:51.981Z,1.95
2022-08-12T17:04:24.297Z,1.75
2022-08-12T17:06:52.793Z,1.90
2022-08-12T17:09:19.859Z,1.77
2022-08-12T17:11:50.391Z,2.20
2022-08-12T17:14:23.167Z,1.90
2022-08-12T17:16:55.525Z,2.03
2022-08-12T17:20:28.716Z,2.13
2022-08-12T17:22:15.551Z,2.08
2022-08-12T17:24:54.565Z,1.80
2022-08-12T17:27:35.151Z,1.90
2022-08-12T17:30:05.613Z,1.63
2022-08-12T17:32:37.240Z,1.83
2022-08-12T17:35:29.951Z,1.88
2022-08-12T17:38:11.601Z,1.92
2022-08-12T17:40:39.454Z,2.05
2022-08-12T17:43:51.843Z,1.90
2022-08-12T17:45:58.877Z,2.00
2022-08-12T17:48:34.913Z,1.90
2022-08-12T17:51:15.380Z,2.05
2022-08-12T17:54:11.086Z,1.88
2022-08-12T17:56:37.661Z,1.90
2022-08-12T17:59:07.534Z,1.70
2022-08-12T18:01:36.107Z,1.85
2022-08-12T18:04:22.455Z,1.98
2022-08-12T18:06:55.861Z,1.90
2022-08-12T18:09:24.450Z,1.92
2022-08-12T18:12:11.654Z,1.80
2022-08-12T18:14:41.305Z,2.13
2022-08-12T18:17:16.651Z,2.22
2022-08-12T18:20:05.656Z,1.88
2022-08-12T18:22:32.723Z,2.30
2022-08-12T18:25:05.160Z,2.17
2022-08-12T18:27:44.647Z,2.13
2022-08-12T18:30:20.982Z,1.83
2022-08-12T18:33:04.995Z,1.92
2022-08-12T18:35:47.134Z,1.80
2022-08-12T18:38:21.772Z,1.95
2022-08-12T18:41:10.419Z,1.80
2022-08-12T18:43:59.338Z,1.95
2022-08-12T18:46:47.518Z,1.90
2022-08-12T18:49:38.742Z,1.90
2022-08-12T18:52:11.692Z,1.80
2022-08-12T18:54:55.735Z,2.00
2022-08-12T18:58:07.365Z,2.00
2022-08-12T19:00:22.330Z,1.75
2022-08-12T19:02:53.021Z,2.00
2022-08-12T19:05:20.112Z,2.05
2022-08-12T19:08:00.921Z,1.90
2022-08-12T19:10:31.805Z,2.03
2022-08-12T19:13:23.809Z,1.75
2022-08-12T19:15:57.409Z,2.00
2022-08-12T19:18:29.298Z,1.90
2022-08-12T19:20:58.686Z,1.60
2022-08-12T19:23:35.162Z,2.20
2022-08-12T19:26:04.776Z,2.05
2022-08-12T19:28:35.353Z,1.75
2022-08-12T19:31:55.651Z,1.70
2022-08-12T19:38:02.806Z,2.08
2022-08-12T19:40:31.081Z,1.95
2022-08-12T19:43:18.322Z,1.70
2022-08-12T19:45:51.573Z,1.80
2022-08-12T19:48:27.594Z,2.00
2022-08-12T19:50:57.539Z,1.70
2022-08-12T19:53:27.625Z,2.00
2022-08-12T19:55:57.399Z,1.77
2022-08-12T19:58:25.858Z,1.70
2022-08-12T20:00:55.459Z,1.70
2022-08-12T20:03:39.954Z,1.70
2022-08-12T20:06:15.293Z,1.50
2022-08-12T20:08:48.603Z,1.60
2022-08-12T20:12:09.440Z,1.63
2022-08-12T20:14:07.243Z,1.42
2022-08-12T20:16:57.791Z,1.70
2022-08-12T20:19:52.717Z,1.65
2022-08-12T20:22:24.270Z,1.45
2022-08-12T20:25:02.145Z,1.58
2022-08-12T20:28:04.424Z,1.73
2022-08-12T20:30:37.298Z,1.63
2022-08-12T20:33:17.378Z,1.50
2022-08-12T20:36:13.330Z,1.80
2022-08-12T20:38:38.419Z,1.48
2022-08-12T20:41:16.578Z,1.38
2022-08-12T20:43:51.902Z,1.80
2022-08-12T20:46:20.083Z,1.90
2022-08-12T20:48:54.973Z,1.70
2022-08-12T20:51:27.517Z,1.70
2022-08-12T20:53:58.758Z,1.70
2022-08-12T20:56:38.193Z,1.65
2022-08-12T20:59:10.994Z,1.60
2022-08-12T21:04:35.733Z,1.80
2022-08-12T21:07:09.145Z,1.65
2022-08-12T21:09:44.716Z,1.40
2022-08-12T21:12:27.833Z,1.70
2022-08-12T21:15:18.121Z,1.70
2022-08-12T21:18:09.339Z,1.55
2022-08-12T21:20:52.877Z,1.60
2022-08-12T21:23:22.524Z,1.60
2022-08-12T21:25:51.206Z,1.60
2022-08-12T21:28:20.945Z,1.35
2022-08-12T21:31:10.962Z,1.60
2022-08-12T21:33:58.294Z,1.90
2022-08-12T21:36:34.221Z,1.60
2022-08-12T21:39:18.582Z,1.42
2022-08-12T21:41:51.536Z,1.50
2022-08-12T21:45:46.457Z,1.75
2022-08-12T21:47:20.776Z,1.67
2022-08-12T21:50:06.611Z,1.50
2022-08-12T21:52:40.835Z,1.65
2022-08-12T21:55:19.617Z,1.60
2022-08-12T21:57:54.841Z,1.60
2022-08-12T22:00:36.981Z,1.20
2022-08-12T22:04:07.982Z,1.40
2022-08-12T22:06:31.500Z,1.50
2022-08-12T22:09:15.380Z,1.70
2022-08-12T22:11:59.234Z,1.75
2022-08-12T22:14:29.629Z,1.55
2022-08-12T22:16:58.393Z,1.50
2022-08-12T22:19:26.934Z,1.77
2022-08-12T22:21:56.174Z,1.85
2022-08-12T22:24:25.679Z,1.50
2022-08-12T22:26:54.496Z,1.60
2022-08-12T22:29:40.852Z,2.05
2022-08-12T22:32:11.930Z,1.88
2022-08-12T22:34:39.449Z,1.83
2022-08-12T22:37:11.335Z,1.70
2022-08-12T22:39:46.481Z,1.77
2022-08-12T22:42:34.365Z,1.95
2022-08-12T22:45:24.388Z,1.73
2022-08-12T22:47:56.115Z,1.90
2022-08-12T22:50:29.702Z,1.60
2022-08-12T22:53:17.598Z,1.95
2022-08-12T22:56:05.538Z,1.40
2022-08-12T22:58:40.786Z,1.67
2022-08-12T23:01:11.161Z,1.80
2022-08-12T23:03:49.620Z,1.70
2022-08-12T23:06:24.065Z,1.70
2022-08-12T23:08:54.692Z,1.70
2022-08-12T23:11:23.878Z,1.60
2022-08-12T23:14:00.866Z,1.90
2022-08-12T23:16:33.407Z,2.10
2022-08-12T23:19:10.626Z,2.05
2022-08-12T23:22:05.098Z,1.88
2022-08-12T23:24:55.829Z,2.00
2022-08-12T23:27:52.315Z,2.35
2022-08-12T23:30:31.255Z,1.80
2022-08-12T23:33:13.183Z,1.90
2022-08-12T23:35:59.232Z,2.10
2022-08-12T23:38:33.009Z,2.13
2022-08-12T23:41:02.442Z,2.00
2022-08-12T23:43:39.181Z,2.00
2022-08-12T23:46:12.533Z,2.00
2022-08-12T23:48:47.860Z,2.45
2022-08-12T23:51:25.675Z,2.08
2022-08-12T23:53:56.451Z,1.77
2022-08-12T23:56:27.561Z,2.20
2022-08-12T23:58:58.703Z,1.90
